sensor_id;sensor_type;location;lat;lon;timestamp;temperature;humidity
44427;DHT22;30133;47.866;-4.222;2022-08-01T00:01:49;25.20;52.40
44427;DHT22;30133;47.866;-4.222;2022-08-01T00:04:15;25.20;52.40
44427;DHT22;30133;47.866;-4.222;2022-08-01T00:06:41;25.20;52.50
44427;DHT22;30133;47.866;-4.222;2022-08-01T00:09:07;25.20;52.50
44427;DHT22;30133;47.866;-4.222;2022-08-01T00:11:40;25.20;52.50
44427;DHT22;30133;47.866;-4.222;2022-08-01T00:14:07;25.20;52.50
44427;DHT22;30133;47.866;-4.222;2022-08-01T00:16:35;25.20;52.50
44427;DHT22;30133;47.866;-4.222;2022-08-01T00:19:02;25.20;52.50
44427;DHT22;30133;47.866;-4.222;2022-08-01T00:21:29;25.20;52.40
44427;DHT22;30133;47.866;-4.222;2022-08-01T00:23:55;25.20;52.50
44427;DHT22;30133;47.866;-4.222;2022-08-01T00:26:21;25.20;52.50
44427;DHT22;30133;47.866;-4.222;2022-08-01T00:28:46;25.20;52.50
44427;DHT22;30133;47.866;-4.222;2022-08-01T00:31:13;25.20;52.50
44427;DHT22;30133;47.866;-4.222;2022-08-01T00:33:39;25.20;52.50
44427;DHT22;30133;47.866;-4.222;2022-08-01T00:36:05;25.20;52.50
44427;DHT22;30133;47.866;-4.222;2022-08-01T00:38:31;25.20;52.50
44427;DHT22;30133;47.866;-4.222;2022-08-01T00:40:57;25.20;52.50
44427;DHT22;30133;47.866;-4.222;2022-08-01T00:43:23;25.20;52.50
44427;DHT22;30133;47.866;-4.222;2022-08-01T00:45:50;25.10;52.40
44427;DHT22;30133;47.866;-4.222;2022-08-01T00:48:16;25.20;52.50
44427;DHT22;30133;47.866;-4.222;2022-08-01T00:50:42;25.20;52.50
44427;DHT22;30133;47.866;-4.222;2022-08-01T00:53:09;25.20;52.50
44427;DHT22;30133;47.866;-4.222;2022-08-01T00:55:36;25.10;52.50
44427;DHT22;30133;47.866;-4.222;2022-08-01T00:58:02;25.10;52.50
44427;DHT22;30133;47.866;-4.222;2022-08-01T01:00:29;25.10;52.50
44427;DHT22;30133;47.866;-4.222;2022-08-01T01:02:56;25.20;52.60
44427;DHT22;30133;47.866;-4.222;2022-08-01T01:05:25;25.10;52.50
44427;DHT22;30133;47.866;-4.222;2022-08-01T01:08:04;25.10;52.50
44427;DHT22;30133;47.866;-4.222;2022-08-01T01:10:45;25.10;52.50
44427;DHT22;30133;47.866;-4.222;2022-08-01T01:16:13;25.10;52.50
44427;DHT22;30133;47.866;-4.222;2022-08-01T01:19:01;25.10;53.10
44427;DHT22;30133;47.866;-4.222;2022-08-01T01:21:58;25.10;52.60
44427;DHT22;30133;47.866;-4.222;2022-08-01T01:28:06;25.10;52.60
44427;DHT22;30133;47.866;-4.222;2022-08-01T01:30:50;25.10;52.60
44427;DHT22;30133;47.866;-4.222;2022-08-01T01:33:20;25.10;52.60
44427;DHT22;30133;47.866;-4.222;2022-08-01T01:35:51;25.10;52.60
44427;DHT22;30133;47.866;-4.222;2022-08-01T01:38:28;25.10;52.60
44427;DHT22;30133;47.866;-4.222;2022-08-01T01:40:59;25.10;52.60
44427;DHT22;30133;47.866;-4.222;2022-08-01T01:43:27;25.10;52.60
44427;DHT22;30133;47.866;-4.222;2022-08-01T01:45:56;25.10;52.60
44427;DHT22;30133;47.866;-4.222;2022-08-01T01:48:24;25.10;52.60
44427;DHT22;30133;47.866;-4.222;2022-08-01T01:50:52;25.10;52.60
44427;DHT22;30133;47.866;-4.222;2022-08-01T01:53:22;25.10;52.60
44427;DHT22;30133;47.866;-4.222;2022-08-01T01:55:53;25.10;52.60
44427;DHT22;30133;47.866;-4.222;2022-08-01T01:58:22;25.00;52.60
44427;DHT22;30133;47.866;-4.222;2022-08-01T02:00:51;25.10;52.60
44427;DHT22;30133;47.866;-4.222;2022-08-01T02:03:20;25.00;52.60
44427;DHT22;30133;47.866;-4.222;2022-08-01T02:05:48;25.00;52.50
44427;DHT22;30133;47.866;-4.222;2022-08-01T02:08:17;25.10;52.60
44427;DHT22;30133;47.866;-4.222;2022-08-01T02:10:45;25.10;52.60
44427;DHT22;30133;47.866;-4.222;2022-08-01T02:13:40;25.00;52.50
44427;DHT22;30133;47.866;-4.222;2022-08-01T02:16:09;25.00;52.60
44427;DHT22;30133;47.866;-4.222;2022-08-01T02:18:39;25.00;53.10
44427;DHT22;30133;47.866;-4.222;2022-08-01T02:21:11;25.10;52.60
44427;DHT22;30133;47.866;-4.222;2022-08-01T02:23:40;25.10;52.60
44427;DHT22;30133;47.866;-4.222;2022-08-01T02:26:11;25.00;52.60
44427;DHT22;30133;47.866;-4.222;2022-08-01T02:28:58;25.00;52.60
44427;DHT22;30133;47.866;-4.222;2022-08-01T02:31:32;25.00;52.60
44427;DHT22;30133;47.866;-4.222;2022-08-01T02:34:06;25.00;52.60
44427;DHT22;30133;47.866;-4.222;2022-08-01T02:36:36;25.00;52.60
44427;DHT22;30133;47.866;-4.222;2022-08-01T02:39:09;25.00;52.60
44427;DHT22;30133;47.866;-4.222;2022-08-01T02:41:44;25.00;52.70
44427;DHT22;30133;47.866;-4.222;2022-08-01T02:44:27;25.00;52.70
44427;DHT22;30133;47.866;-4.222;2022-08-01T02:47:03;25.00;52.70
44427;DHT22;30133;47.866;-4.222;2022-08-01T02:49:35;25.00;52.70
44427;DHT22;30133;47.866;-4.222;2022-08-01T02:52:08;25.00;52.70
44427;DHT22;30133;47.866;-4.222;2022-08-01T02:54:49;25.00;52.70
44427;DHT22;30133;47.866;-4.222;2022-08-01T02:57:18;25.00;52.70
44427;DHT22;30133;47.866;-4.222;2022-08-01T02:59:46;25.00;52.70
44427;DHT22;30133;47.866;-4.222;2022-08-01T03:02:14;25.00;52.70
44427;DHT22;30133;47.866;-4.222;2022-08-01T03:04:41;25.00;52.60
44427;DHT22;30133;47.866;-4.222;2022-08-01T03:07:11;25.00;52.70
44427;DHT22;30133;47.866;-4.222;2022-08-01T03:09:44;25.00;52.70
44427;DHT22;30133;47.866;-4.222;2022-08-01T03:12:18;25.00;52.60
44427;DHT22;30133;47.866;-4.222;2022-08-01T03:14:54;25.00;52.70
44427;DHT22;30133;47.866;-4.222;2022-08-01T03:17:23;25.00;52.70
44427;DHT22;30133;47.866;-4.222;2022-08-01T03:19:53;25.00;52.70
44427;DHT22;30133;47.866;-4.222;2022-08-01T03:22:24;25.00;52.70
44427;DHT22;30133;47.866;-4.222;2022-08-01T03:24:53;25.00;52.70
44427;DHT22;30133;47.866;-4.222;2022-08-01T03:27:22;25.00;52.80
44427;DHT22;30133;47.866;-4.222;2022-08-01T03:29:51;25.00;52.80
44427;DHT22;30133;47.866;-4.222;2022-08-01T03:32:23;25.00;52.80
44427;DHT22;30133;47.866;-4.222;2022-08-01T03:35:02;25.00;52.80
44427;DHT22;30133;47.866;-4.222;2022-08-01T03:37:42;25.00;52.80
44427;DHT22;30133;47.866;-4.222;2022-08-01T03:40:41;25.00;52.80
44427;DHT22;30133;47.866;-4.222;2022-08-01T03:43:22;25.00;52.80
44427;DHT22;30133;47.866;-4.222;2022-08-01T03:45:56;25.00;52.80
44427;DHT22;30133;47.866;-4.222;2022-08-01T03:48:29;25.00;52.80
44427;DHT22;30133;47.866;-4.222;2022-08-01T03:51:00;24.90;52.80
44427;DHT22;30133;47.866;-4.222;2022-08-01T03:53:33;25.00;52.80
44427;DHT22;30133;47.866;-4.222;2022-08-01T03:56:01;25.00;52.80
44427;DHT22;30133;47.866;-4.222;2022-08-01T03:58:39;25.00;52.80
44427;DHT22;30133;47.866;-4.222;2022-08-01T04:01:06;25.00;52.80
44427;DHT22;30133;47.866;-4.222;2022-08-01T04:03:35;24.90;53.30
44427;DHT22;30133;47.866;-4.222;2022-08-01T04:06:06;25.00;52.80
44427;DHT22;30133;47.866;-4.222;2022-08-01T04:08:37;25.00;52.80
44427;DHT22;30133;47.866;-4.222;2022-08-01T04:11:12;25.00;52.80
44427;DHT22;30133;47.866;-4.222;2022-08-01T04:13:41;25.00;52.80
44427;DHT22;30133;47.866;-4.222;2022-08-01T04:16:15;24.90;52.70
44427;DHT22;30133;47.866;-4.222;2022-08-01T04:18:41;24.90;52.80
44427;DHT22;30133;47.866;-4.222;2022-08-01T04:21:12;24.90;52.70
44427;DHT22;30133;47.866;-4.222;2022-08-01T04:23:43;24.90;52.70
44427;DHT22;30133;47.866;-4.222;2022-08-01T04:26:13;24.90;52.70
44427;DHT22;30133;47.866;-4.222;2022-08-01T04:28:41;24.90;52.70
44427;DHT22;30133;47.866;-4.222;2022-08-01T04:31:09;24.90;52.70
44427;DHT22;30133;47.866;-4.222;2022-08-01T04:33:40;25.00;52.80
44427;DHT22;30133;47.866;-4.222;2022-08-01T04:36:13;24.90;52.70
44427;DHT22;30133;47.866;-4.222;2022-08-01T04:38:42;24.90;52.70
44427;DHT22;30133;47.866;-4.222;2022-08-01T04:41:13;24.90;52.80
44427;DHT22;30133;47.866;-4.222;2022-08-01T04:43:42;24.90;52.80
44427;DHT22;30133;47.866;-4.222;2022-08-01T04:46:10;24.90;52.80
44427;DHT22;30133;47.866;-4.222;2022-08-01T04:48:38;24.90;52.80
44427;DHT22;30133;47.866;-4.222;2022-08-01T04:51:16;24.90;53.30
44427;DHT22;30133;47.866;-4.222;2022-08-01T04:53:49;24.90;52.80
44427;DHT22;30133;47.866;-4.222;2022-08-01T04:56:19;24.90;52.80
44427;DHT22;30133;47.866;-4.222;2022-08-01T04:58:46;24.90;52.80
44427;DHT22;30133;47.866;-4.222;2022-08-01T05:01:33;24.90;52.80
44427;DHT22;30133;47.866;-4.222;2022-08-01T05:04:00;24.90;52.80
44427;DHT22;30133;47.866;-4.222;2022-08-01T05:06:28;24.90;52.70
44427;DHT22;30133;47.866;-4.222;2022-08-01T05:09:00;24.90;52.70
44427;DHT22;30133;47.866;-4.222;2022-08-01T05:11:26;24.90;52.80
44427;DHT22;30133;47.866;-4.222;2022-08-01T05:13:54;24.90;52.80
44427;DHT22;30133;47.866;-4.222;2022-08-01T05:16:29;24.90;52.80
44427;DHT22;30133;47.866;-4.222;2022-08-01T05:18:58;24.90;52.80
44427;DHT22;30133;47.866;-4.222;2022-08-01T05:21:28;24.90;52.80
44427;DHT22;30133;47.866;-4.222;2022-08-01T05:23:54;24.90;52.80
44427;DHT22;30133;47.866;-4.222;2022-08-01T05:26:20;24.90;52.80
44427;DHT22;30133;47.866;-4.222;2022-08-01T05:28:48;24.90;52.80
44427;DHT22;30133;47.866;-4.222;2022-08-01T05:31:16;24.90;52.80
44427;DHT22;30133;47.866;-4.222;2022-08-01T05:33:44;24.90;52.80
44427;DHT22;30133;47.866;-4.222;2022-08-01T05:36:10;24.90;52.90
44427;DHT22;30133;47.866;-4.222;2022-08-01T05:38:36;24.90;52.80
44427;DHT22;30133;47.866;-4.222;2022-08-01T05:41:02;24.90;52.90
44427;DHT22;30133;47.866;-4.222;2022-08-01T05:43:28;24.90;52.80
44427;DHT22;30133;47.866;-4.222;2022-08-01T05:45:55;24.90;52.80
44427;DHT22;30133;47.866;-4.222;2022-08-01T05:48:22;24.90;53.40
44427;DHT22;30133;47.866;-4.222;2022-08-01T05:50:50;24.90;52.80
44427;DHT22;30133;47.866;-4.222;2022-08-01T05:53:17;24.90;52.80
44427;DHT22;30133;47.866;-4.222;2022-08-01T05:55:46;24.90;52.80
44427;DHT22;30133;47.866;-4.222;2022-08-01T05:58:12;24.90;52.80
44427;DHT22;30133;47.866;-4.222;2022-08-01T06:00:41;24.90;53.40
44427;DHT22;30133;47.866;-4.222;2022-08-01T06:03:07;24.90;52.80
44427;DHT22;30133;47.866;-4.222;2022-08-01T06:05:34;24.90;52.80
44427;DHT22;30133;47.866;-4.222;2022-08-01T06:08:01;24.90;52.90
44427;DHT22;30133;47.866;-4.222;2022-08-01T06:10:30;24.90;52.90
44427;DHT22;30133;47.866;-4.222;2022-08-01T06:12:56;24.80;52.80
44427;DHT22;30133;47.866;-4.222;2022-08-01T06:15:22;24.90;52.90
44427;DHT22;30133;47.866;-4.222;2022-08-01T06:17:59;24.90;52.90
44427;DHT22;30133;47.866;-4.222;2022-08-01T06:20:25;24.80;52.80
44427;DHT22;30133;47.866;-4.222;2022-08-01T06:22:53;24.80;52.90
44427;DHT22;30133;47.866;-4.222;2022-08-01T06:25:22;24.90;52.90
44427;DHT22;30133;47.866;-4.222;2022-08-01T06:27:49;24.80;52.90
44427;DHT22;30133;47.866;-4.222;2022-08-01T06:30:17;24.80;52.90
44427;DHT22;30133;47.866;-4.222;2022-08-01T06:32:43;24.80;52.90
44427;DHT22;30133;47.866;-4.222;2022-08-01T06:35:09;24.80;52.90
44427;DHT22;30133;47.866;-4.222;2022-08-01T06:37:39;24.80;52.90
44427;DHT22;30133;47.866;-4.222;2022-08-01T06:40:08;24.80;52.90
44427;DHT22;30133;47.866;-4.222;2022-08-01T06:42:37;24.80;52.90
44427;DHT22;30133;47.866;-4.222;2022-08-01T06:45:13;24.90;53.00
44427;DHT22;30133;47.866;-4.222;2022-08-01T06:47:42;24.80;52.90
44427;DHT22;30133;47.866;-4.222;2022-08-01T06:50:18;24.80;52.90
44427;DHT22;30133;47.866;-4.222;2022-08-01T06:52:45;24.80;52.90
44427;DHT22;30133;47.866;-4.222;2022-08-01T06:55:11;24.80;53.00
44427;DHT22;30133;47.866;-4.222;2022-08-01T06:57:50;24.80;52.90
44427;DHT22;30133;47.866;-4.222;2022-08-01T07:00:20;24.90;53.00
44427;DHT22;30133;47.866;-4.222;2022-08-01T07:02:49;24.80;52.90
44427;DHT22;30133;47.866;-4.222;2022-08-01T07:05:20;24.80;52.90
44427;DHT22;30133;47.866;-4.222;2022-08-01T07:07:50;24.80;53.00
44427;DHT22;30133;47.866;-4.222;2022-08-01T07:10:17;24.80;53.00
44427;DHT22;30133;47.866;-4.222;2022-08-01T07:12:44;24.80;53.00
44427;DHT22;30133;47.866;-4.222;2022-08-01T07:15:11;24.80;53.00
44427;DHT22;30133;47.866;-4.222;2022-08-01T07:17:43;24.80;53.00
44427;DHT22;30133;47.866;-4.222;2022-08-01T07:20:16;24.80;53.00
44427;DHT22;30133;47.866;-4.222;2022-08-01T07:22:44;24.80;53.00
44427;DHT22;30133;47.866;-4.222;2022-08-01T07:25:11;24.80;53.00
44427;DHT22;30133;47.866;-4.222;2022-08-01T07:27:37;24.80;53.00
44427;DHT22;30133;47.866;-4.222;2022-08-01T07:30:06;24.80;53.00
44427;DHT22;30133;47.866;-4.222;2022-08-01T07:32:35;24.80;53.00
44427;DHT22;30133;47.866;-4.222;2022-08-01T07:35:07;24.80;53.00
44427;DHT22;30133;47.866;-4.222;2022-08-01T07:37:35;24.90;53.00
44427;DHT22;30133;47.866;-4.222;2022-08-01T07:40:03;24.80;53.00
44427;DHT22;30133;47.866;-4.222;2022-08-01T07:42:31;24.80;53.00
44427;DHT22;30133;47.866;-4.222;2022-08-01T07:44:59;24.80;53.00
44427;DHT22;30133;47.866;-4.222;2022-08-01T07:47:27;24.80;53.00
44427;DHT22;30133;47.866;-4.222;2022-08-01T07:49:59;24.80;53.00
44427;DHT22;30133;47.866;-4.222;2022-08-01T07:52:26;24.80;53.00
44427;DHT22;30133;47.866;-4.222;2022-08-01T07:54:53;24.80;53.00
44427;DHT22;30133;47.866;-4.222;2022-08-01T07:57:20;24.90;53.10
44427;DHT22;30133;47.866;-4.222;2022-08-01T07:59:46;24.80;53.00
44427;DHT22;30133;47.866;-4.222;2022-08-01T08:02:12;24.80;53.00
44427;DHT22;30133;47.866;-4.222;2022-08-01T08:04:38;24.80;53.00
44427;DHT22;30133;47.866;-4.222;2022-08-01T08:07:05;24.80;53.00
44427;DHT22;30133;47.866;-4.222;2022-08-01T08:09:32;24.90;53.00
44427;DHT22;30133;47.866;-4.222;2022-08-01T08:11:59;24.90;53.10
44427;DHT22;30133;47.866;-4.222;2022-08-01T08:14:30;24.80;53.00
44427;DHT22;30133;47.866;-4.222;2022-08-01T08:16:56;24.90;53.10
44427;DHT22;30133;47.866;-4.222;2022-08-01T08:19:23;24.90;53.10
44427;DHT22;30133;47.866;-4.222;2022-08-01T08:21:57;24.90;53.10
44427;DHT22;30133;47.866;-4.222;2022-08-01T08:24:26;24.80;53.10
44427;DHT22;30133;47.866;-4.222;2022-08-01T08:27:00;24.90;53.10
44427;DHT22;30133;47.866;-4.222;2022-08-01T08:29:28;24.90;53.10
44427;DHT22;30133;47.866;-4.222;2022-08-01T08:31:57;24.90;53.10
44427;DHT22;30133;47.866;-4.222;2022-08-01T08:34:26;24.80;53.00
44427;DHT22;30133;47.866;-4.222;2022-08-01T08:36:53;24.90;53.00
44427;DHT22;30133;47.866;-4.222;2022-08-01T08:39:22;24.90;53.00
44427;DHT22;30133;47.866;-4.222;2022-08-01T08:41:50;24.90;53.00
44427;DHT22;30133;47.866;-4.222;2022-08-01T08:44:18;24.90;53.00
44427;DHT22;30133;47.866;-4.222;2022-08-01T08:46:55;24.90;53.00
44427;DHT22;30133;47.866;-4.222;2022-08-01T08:49:26;24.90;53.10
44427;DHT22;30133;47.866;-4.222;2022-08-01T08:51:59;24.80;53.00
44427;DHT22;30133;47.866;-4.222;2022-08-01T08:54:30;24.90;53.10
44427;DHT22;30133;47.866;-4.222;2022-08-01T08:56:58;24.90;53.10
44427;DHT22;30133;47.866;-4.222;2022-08-01T08:59:25;24.90;53.10
44427;DHT22;30133;47.866;-4.222;2022-08-01T09:01:56;24.90;53.10
44427;DHT22;30133;47.866;-4.222;2022-08-01T09:04:23;24.90;53.10
44427;DHT22;30133;47.866;-4.222;2022-08-01T09:06:51;24.90;53.10
44427;DHT22;30133;47.866;-4.222;2022-08-01T09:09:20;24.90;53.10
44427;DHT22;30133;47.866;-4.222;2022-08-01T09:11:46;24.90;53.10
44427;DHT22;30133;47.866;-4.222;2022-08-01T09:14:17;24.90;53.10
44427;DHT22;30133;47.866;-4.222;2022-08-01T09:17:04;24.90;53.10
44427;DHT22;30133;47.866;-4.222;2022-08-01T09:19:37;24.90;53.00
44427;DHT22;30133;47.866;-4.222;2022-08-01T09:22:13;24.90;53.10
44427;DHT22;30133;47.866;-4.222;2022-08-01T09:25:00;24.90;53.10
44427;DHT22;30133;47.866;-4.222;2022-08-01T09:27:32;24.90;53.00
44427;DHT22;30133;47.866;-4.222;2022-08-01T09:32:59;24.90;53.10
44427;DHT22;30133;47.866;-4.222;2022-08-01T09:35:33;24.90;53.30
44427;DHT22;30133;47.866;-4.222;2022-08-01T09:38:25;24.90;53.50
44427;DHT22;30133;47.866;-4.222;2022-08-01T09:40:59;24.90;53.60
44427;DHT22;30133;47.866;-4.222;2022-08-01T09:43:28;24.90;53.90
44427;DHT22;30133;47.866;-4.222;2022-08-01T09:45:56;24.90;54.00
44427;DHT22;30133;47.866;-4.222;2022-08-01T09:48:23;24.90;54.70
44427;DHT22;30133;47.866;-4.222;2022-08-01T09:50:52;24.90;54.20
44427;DHT22;30133;47.866;-4.222;2022-08-01T09:53:21;24.90;54.20
44427;DHT22;30133;47.866;-4.222;2022-08-01T09:55:48;24.90;54.30
44427;DHT22;30133;47.866;-4.222;2022-08-01T09:58:19;24.90;54.30
44427;DHT22;30133;47.866;-4.222;2022-08-01T10:00:58;24.90;54.30
44427;DHT22;30133;47.866;-4.222;2022-08-01T10:03:34;24.90;54.30
44427;DHT22;30133;47.866;-4.222;2022-08-01T10:06:11;24.90;54.30
44427;DHT22;30133;47.866;-4.222;2022-08-01T10:08:47;24.90;54.30
44427;DHT22;30133;47.866;-4.222;2022-08-01T10:11:14;24.90;54.50
44427;DHT22;30133;47.866;-4.222;2022-08-01T10:13:40;24.90;54.30
44427;DHT22;30133;47.866;-4.222;2022-08-01T10:16:07;24.90;54.20
44427;DHT22;30133;47.866;-4.222;2022-08-01T10:18:35;24.90;54.20
44427;DHT22;30133;47.866;-4.222;2022-08-01T10:21:04;24.90;54.30
44427;DHT22;30133;47.866;-4.222;2022-08-01T10:23:39;24.90;54.10
44427;DHT22;30133;47.866;-4.222;2022-08-01T10:26:07;25.00;54.20
44427;DHT22;30133;47.866;-4.222;2022-08-01T10:28:37;25.00;54.10
44427;DHT22;30133;47.866;-4.222;2022-08-01T10:31:07;25.00;54.10
44427;DHT22;30133;47.866;-4.222;2022-08-01T10:33:42;25.00;54.00
44427;DHT22;30133;47.866;-4.222;2022-08-01T10:36:12;25.00;54.10
44427;DHT22;30133;47.866;-4.222;2022-08-01T10:38:43;25.00;54.00
44427;DHT22;30133;47.866;-4.222;2022-08-01T10:41:09;25.00;54.00
44427;DHT22;30133;47.866;-4.222;2022-08-01T10:43:41;25.00;54.00
44427;DHT22;30133;47.866;-4.222;2022-08-01T10:46:10;25.00;53.90
44427;DHT22;30133;47.866;-4.222;2022-08-01T10:48:51;25.00;53.90
44427;DHT22;30133;47.866;-4.222;2022-08-01T10:51:26;25.10;53.90
44427;DHT22;30133;47.866;-4.222;2022-08-01T10:53:54;25.10;53.90
44427;DHT22;30133;47.866;-4.222;2022-08-01T10:56:22;25.10;53.90
44427;DHT22;30133;47.866;-4.222;2022-08-01T10:58:51;25.10;53.90
44427;DHT22;30133;47.866;-4.222;2022-08-01T11:01:32;25.10;53.90
44427;DHT22;30133;47.866;-4.222;2022-08-01T11:14:30;25.10;53.90
44427;DHT22;30133;47.866;-4.222;2022-08-01T11:30:50;25.10;54.00
44427;DHT22;30133;47.866;-4.222;2022-08-01T11:41:27;25.20;54.00
44427;DHT22;30133;47.866;-4.222;2022-08-01T11:46:58;25.20;53.90
44427;DHT22;30133;47.866;-4.222;2022-08-01T11:49:45;25.20;53.80
44427;DHT22;30133;47.866;-4.222;2022-08-01T11:52:27;25.20;53.80
44427;DHT22;30133;47.866;-4.222;2022-08-01T11:55:06;25.20;53.80
44427;DHT22;30133;47.866;-4.222;2022-08-01T11:57:35;25.20;53.90
44427;DHT22;30133;47.866;-4.222;2022-08-01T12:03:00;25.20;53.80
44427;DHT22;30133;47.866;-4.222;2022-08-01T12:05:29;25.20;53.70
44427;DHT22;30133;47.866;-4.222;2022-08-01T12:08:00;25.20;53.70
44427;DHT22;30133;47.866;-4.222;2022-08-01T12:10:30;25.20;53.70
44427;DHT22;30133;47.866;-4.222;2022-08-01T12:13:02;25.20;53.70
44427;DHT22;30133;47.866;-4.222;2022-08-01T12:15:34;25.20;53.50
44427;DHT22;30133;47.866;-4.222;2022-08-01T12:18:14;25.20;53.70
44427;DHT22;30133;47.866;-4.222;2022-08-01T12:20:43;25.20;53.60
44427;DHT22;30133;47.866;-4.222;2022-08-01T12:23:14;25.20;53.60
44427;DHT22;30133;47.866;-4.222;2022-08-01T12:25:54;25.20;53.60
44427;DHT22;30133;47.866;-4.222;2022-08-01T12:28:21;25.20;53.50
44427;DHT22;30133;47.866;-4.222;2022-08-01T12:30:49;25.30;53.50
44427;DHT22;30133;47.866;-4.222;2022-08-01T12:33:18;25.30;53.60
44427;DHT22;30133;47.866;-4.222;2022-08-01T12:35:45;25.30;53.50
44427;DHT22;30133;47.866;-4.222;2022-08-01T12:38:17;25.30;53.50
44427;DHT22;30133;47.866;-4.222;2022-08-01T12:40:48;25.30;53.50
44427;DHT22;30133;47.866;-4.222;2022-08-01T12:43:20;25.30;53.50
44427;DHT22;30133;47.866;-4.222;2022-08-01T12:45:56;25.30;53.50
44427;DHT22;30133;47.866;-4.222;2022-08-01T12:48:25;25.30;53.50
44427;DHT22;30133;47.866;-4.222;2022-08-01T12:50:53;25.30;53.50
44427;DHT22;30133;47.866;-4.222;2022-08-01T12:53:21;25.30;53.50
44427;DHT22;30133;47.866;-4.222;2022-08-01T12:55:53;25.30;53.50
44427;DHT22;30133;47.866;-4.222;2022-08-01T12:58:21;25.40;53.50
44427;DHT22;30133;47.866;-4.222;2022-08-01T13:01:01;25.40;53.50
44427;DHT22;30133;47.866;-4.222;2022-08-01T13:03:29;25.30;53.40
44427;DHT22;30133;47.866;-4.222;2022-08-01T13:05:58;25.40;53.40
44427;DHT22;30133;47.866;-4.222;2022-08-01T13:08:34;25.40;53.40
44427;DHT22;30133;47.866;-4.222;2022-08-01T13:11:06;25.40;53.40
44427;DHT22;30133;47.866;-4.222;2022-08-01T13:13:42;25.40;53.50
44427;DHT22;30133;47.866;-4.222;2022-08-01T13:16:19;25.40;53.50
44427;DHT22;30133;47.866;-4.222;2022-08-01T13:18:50;25.40;53.40
44427;DHT22;30133;47.866;-4.222;2022-08-01T13:26:44;25.40;53.40
44427;DHT22;30133;47.866;-4.222;2022-08-01T13:29:13;25.40;53.40
44427;DHT22;30133;47.866;-4.222;2022-08-01T13:31:44;25.40;54.00
44427;DHT22;30133;47.866;-4.222;2022-08-01T13:34:13;25.40;53.40
44427;DHT22;30133;47.866;-4.222;2022-08-01T13:36:40;25.40;53.50
44427;DHT22;30133;47.866;-4.222;2022-08-01T13:39:08;25.40;53.50
44427;DHT22;30133;47.866;-4.222;2022-08-01T13:41:54;25.40;53.50
44427;DHT22;30133;47.866;-4.222;2022-08-01T13:44:22;25.40;53.50
44427;DHT22;30133;47.866;-4.222;2022-08-01T13:46:49;25.40;53.50
44427;DHT22;30133;47.866;-4.222;2022-08-01T13:49:15;25.40;53.50
44427;DHT22;30133;47.866;-4.222;2022-08-01T13:51:45;25.50;53.50
44427;DHT22;30133;47.866;-4.222;2022-08-01T13:54:17;25.50;53.50
44427;DHT22;30133;47.866;-4.222;2022-08-01T13:56:58;25.50;53.50
44427;DHT22;30133;47.866;-4.222;2022-08-01T13:59:39;25.50;53.50
44427;DHT22;30133;47.866;-4.222;2022-08-01T14:02:05;25.50;53.60
44427;DHT22;30133;47.866;-4.222;2022-08-01T14:04:32;25.50;53.50
44427;DHT22;30133;47.866;-4.222;2022-08-01T14:06:58;25.50;53.60
44427;DHT22;30133;47.866;-4.222;2022-08-01T14:09:25;25.50;53.50
44427;DHT22;30133;47.866;-4.222;2022-08-01T14:11:53;25.50;53.60
44427;DHT22;30133;47.866;-4.222;2022-08-01T14:14:19;25.50;53.60
44427;DHT22;30133;47.866;-4.222;2022-08-01T14:16:46;25.50;53.60
44427;DHT22;30133;47.866;-4.222;2022-08-01T14:19:13;25.50;53.50
44427;DHT22;30133;47.866;-4.222;2022-08-01T14:21:41;25.50;53.50
44427;DHT22;30133;47.866;-4.222;2022-08-01T14:24:11;25.60;53.60
44427;DHT22;30133;47.866;-4.222;2022-08-01T14:26:39;25.60;53.60
44427;DHT22;30133;47.866;-4.222;2022-08-01T14:29:07;25.60;53.60
44427;DHT22;30133;47.866;-4.222;2022-08-01T14:31:33;25.60;53.60
44427;DHT22;30133;47.866;-4.222;2022-08-01T14:34:00;25.60;53.60
44427;DHT22;30133;47.866;-4.222;2022-08-01T14:36:27;25.60;53.70
44427;DHT22;30133;47.866;-4.222;2022-08-01T14:38:54;25.60;53.70
44427;DHT22;30133;47.866;-4.222;2022-08-01T14:41:24;25.60;53.60
44427;DHT22;30133;47.866;-4.222;2022-08-01T14:43:51;25.60;53.70
44427;DHT22;30133;47.866;-4.222;2022-08-01T14:46:19;25.60;53.70
44427;DHT22;30133;47.866;-4.222;2022-08-01T14:48:46;25.60;53.70
44427;DHT22;30133;47.866;-4.222;2022-08-01T14:51:12;25.60;54.20
44427;DHT22;30133;47.866;-4.222;2022-08-01T14:53:39;25.60;53.70
44427;DHT22;30133;47.866;-4.222;2022-08-01T14:56:05;25.60;53.70
44427;DHT22;30133;47.866;-4.222;2022-08-01T14:58:34;25.60;53.70
44427;DHT22;30133;47.866;-4.222;2022-08-01T15:01:07;25.60;53.70
44427;DHT22;30133;47.866;-4.222;2022-08-01T15:03:34;25.60;53.70
44427;DHT22;30133;47.866;-4.222;2022-08-01T15:06:02;25.60;53.70
44427;DHT22;30133;47.866;-4.222;2022-08-01T15:08:29;25.60;53.70
44427;DHT22;30133;47.866;-4.222;2022-08-01T15:10:55;25.60;53.70
44427;DHT22;30133;47.866;-4.222;2022-08-01T15:13:22;25.60;53.70
44427;DHT22;30133;47.866;-4.222;2022-08-01T15:15:49;25.60;53.70
44427;DHT22;30133;47.866;-4.222;2022-08-01T15:18:17;25.60;53.70
44427;DHT22;30133;47.866;-4.222;2022-08-01T15:20:43;25.60;53.80
44427;DHT22;30133;47.866;-4.222;2022-08-01T15:23:11;25.60;53.70
44427;DHT22;30133;47.866;-4.222;2022-08-01T15:25:38;25.60;53.80
44427;DHT22;30133;47.866;-4.222;2022-08-01T15:28:06;25.60;53.80
44427;DHT22;30133;47.866;-4.222;2022-08-01T15:30:32;25.60;53.80
44427;DHT22;30133;47.866;-4.222;2022-08-01T15:32:58;25.60;53.80
44427;DHT22;30133;47.866;-4.222;2022-08-01T15:35:25;25.60;53.80
44427;DHT22;30133;47.866;-4.222;2022-08-01T15:37:52;25.60;53.80
44427;DHT22;30133;47.866;-4.222;2022-08-01T15:40:18;25.60;53.80
44427;DHT22;30133;47.866;-4.222;2022-08-01T15:42:46;25.60;54.40
44427;DHT22;30133;47.866;-4.222;2022-08-01T15:45:14;25.60;53.90
44427;DHT22;30133;47.866;-4.222;2022-08-01T15:47:43;25.60;53.90
44427;DHT22;30133;47.866;-4.222;2022-08-01T15:50:10;25.60;53.90
44427;DHT22;30133;47.866;-4.222;2022-08-01T15:52:37;25.60;53.90
44427;DHT22;30133;47.866;-4.222;2022-08-01T15:55:05;25.60;54.50
44427;DHT22;30133;47.866;-4.222;2022-08-01T15:57:31;25.60;54.00
44427;DHT22;30133;47.866;-4.222;2022-08-01T15:59:57;25.60;54.00
44427;DHT22;30133;47.866;-4.222;2022-08-01T16:02:30;25.60;54.00
44427;DHT22;30133;47.866;-4.222;2022-08-01T16:04:57;25.60;54.00
44427;DHT22;30133;47.866;-4.222;2022-08-01T16:07:23;25.60;54.00
44427;DHT22;30133;47.866;-4.222;2022-08-01T16:09:49;25.70;54.10
44427;DHT22;30133;47.866;-4.222;2022-08-01T16:12:16;25.70;54.10
44427;DHT22;30133;47.866;-4.222;2022-08-01T16:14:48;25.70;54.20
44427;DHT22;30133;47.866;-4.222;2022-08-01T16:17:18;25.70;54.20
44427;DHT22;30133;47.866;-4.222;2022-08-01T16:19:44;25.60;54.20
44427;DHT22;30133;47.866;-4.222;2022-08-01T16:22:11;25.60;54.20
44427;DHT22;30133;47.866;-4.222;2022-08-01T16:24:39;25.60;54.20
44427;DHT22;30133;47.866;-4.222;2022-08-01T16:27:05;25.60;54.20